Time;durP1;ratioP1;P1;durP2;ratioP2;P2;SDS_P1;SDS_P2;PMS_P1;PMS_P2;Temp;Humidity;BMP_temperature;BMP_pressure;BME280_temperature;BME280_humidity;BME280_pressure;Samples;Min_cycle;Max_cycle;Signal;HPM_P1;HPM_P2
2022/06/03 00:01:03;;;;;;;3.60;2.22;;;11.70;99.90;;;;;;4880258;29;20049;-86
2022/06/03 00:03:51;;;;;;;2.22;2.03;;;11.70;99.90;;;;;;4880492;29;20053;-85
2022/06/03 00:06:37;;;;;;;5.60;3.25;;;11.70;99.90;;;;;;4880435;29;20488;-85
2022/06/03 00:09:19;;;;;;;4.80;2.25;;;11.60;99.90;;;;;;4880355;29;20057;-86
2022/06/03 00:12:39;;;;;;;2.58;1.98;;;11.60;99.90;;;;;;4880128;29;20046;-86
2022/06/03 00:15:15;;;;;;;2.55;2.03;;;11.60;99.90;;;;;;4807707;29;20054;-86
2022/06/03 00:17:55;;;;;;;4.45;1.77;;;11.60;99.90;;;;;;4867800;29;20053;-86
2022/06/03 00:20:35;;;;;;;2.92;2.40;;;11.60;99.90;;;;;;4846685;29;20051;-85
2022/06/03 00:23:28;;;;;;;3.65;1.90;;;11.60;99.90;;;;;;4875917;29;20084;-85
2022/06/03 00:26:16;;;;;;;2.08;1.58;;;11.60;99.90;;;;;;4867614;29;20562;-85
2022/06/03 00:29:14;;;;;;;2.50;2.20;;;11.60;99.90;;;;;;4862709;29;20050;-85
2022/06/03 00:32:08;;;;;;;2.28;2.08;;;11.60;99.90;;;;;;4852926;29;20046;-85
2022/06/03 00:35:12;;;;;;;3.55;2.40;;;11.50;99.90;;;;;;4859059;29;20139;-85
2022/06/03 00:38:05;;;;;;;2.45;2.22;;;11.50;99.90;;;;;;4864758;29;20204;-85
2022/06/03 00:40:58;;;;;;;4.57;2.22;;;11.50;99.90;;;;;;4880253;29;20049;-85
2022/06/03 00:43:55;;;;;;;4.53;2.10;;;11.40;99.90;;;;;;4864251;29;20548;-85
2022/06/03 00:46:33;;;;;;;3.20;2.22;;;11.40;99.90;;;;;;4879591;29;20056;-85
2022/06/03 00:49:18;;;;;;;2.22;1.70;;;11.40;99.90;;;;;;4894472;29;20041;-85
2022/06/03 00:52:11;;;;;;;3.53;2.40;;;11.40;99.90;;;;;;4864278;29;20045;-85
2022/06/03 00:54:36;;;;;;;2.38;1.80;;;11.40;99.90;;;;;;4879668;29;20056;-85
2022/06/03 00:57:08;;;;;;;4.57;2.00;;;11.30;99.90;;;;;;4871030;29;20045;-85
2022/06/03 00:59:58;;;;;;;3.30;2.05;;;11.30;99.90;;;;;;4861258;29;20057;-85
2022/06/03 01:02:48;;;;;;;4.18;2.28;;;11.30;99.90;;;;;;4861310;29;20397;-85
2022/06/03 01:05:42;;;;;;;6.55;2.78;;;11.30;99.90;;;;;;4846735;29;20057;-85
2022/06/03 01:08:30;;;;;;;4.88;2.15;;;11.30;99.90;;;;;;4863705;29;20164;-85
2022/06/03 01:11:11;;;;;;;3.20;1.90;;;11.20;99.90;;;;;;4836465;29;20057;-86
2022/06/03 01:14:14;;;;;;;3.60;2.13;;;11.20;99.90;;;;;;4879534;29;20402;-85
2022/06/03 01:16:59;;;;;;;2.70;1.55;;;11.20;99.90;;;;;;4882353;29;20151;-85
2022/06/03 01:19:44;;;;;;;2.60;1.90;;;11.10;99.90;;;;;;4881258;29;20072;-85
2022/06/03 01:22:47;;;;;;;3.97;1.55;;;11.10;99.90;;;;;;4866638;29;20196;-85
2022/06/03 01:25:40;;;;;;;1.60;1.50;;;11.10;99.90;;;;;;4866513;29;20041;-85
2022/06/03 01:28:42;;;;;;;4.47;2.20;;;11.00;99.90;;;;;;4881176;29;20080;-85
2022/06/03 01:31:37;;;;;;;4.15;2.50;;;11.00;99.90;;;;;;4881835;29;20100;-85
2022/06/03 01:34:21;;;;;;;3.10;1.95;;;10.90;99.90;;;;;;4881720;29;20140;-85
2022/06/03 01:37:27;;;;;;;3.55;2.42;;;10.90;99.90;;;;;;4881945;29;20369;-85
2022/06/03 01:40:22;;;;;;;2.10;1.90;;;10.90;99.90;;;;;;4882190;29;20060;-85
2022/06/03 01:43:06;;;;;;;2.88;2.22;;;10.80;99.90;;;;;;4866320;29;20135;-85
2022/06/03 01:46:11;;;;;;;3.65;2.70;;;10.80;99.90;;;;;;4882174;29;20377;-85
2022/06/03 01:49:01;;;;;;;3.40;2.33;;;10.70;99.90;;;;;;4848079;29;20065;-85
2022/06/03 01:51:40;;;;;;;3.28;2.05;;;10.70;99.90;;;;;;4879000;29;20136;-85
2022/06/03 01:54:30;;;;;;;4.18;2.50;;;10.70;99.90;;;;;;4863092;29;20507;-85
2022/06/03 01:57:21;;;;;;;5.07;2.22;;;10.70;99.90;;;;;;4865962;29;20048;-85
2022/06/03 01:59:50;;;;;;;3.92;2.22;;;10.70;99.90;;;;;;4881810;29;20049;-84
2022/06/03 02:02:49;;;;;;;2.78;2.20;;;10.70;99.90;;;;;;4865142;29;20080;-85
2022/06/03 02:06:02;;;;;;;2.88;2.28;;;10.60;99.90;;;;;;4881419;29;20560;-85
2022/06/03 02:08:36;;;;;;;4.00;2.70;;;10.60;99.90;;;;;;4881453;29;20056;-85
2022/06/03 02:11:33;;;;;;;4.15;2.03;;;10.60;99.90;;;;;;4881333;29;20051;-86
2022/06/03 02:14:04;;;;;;;3.13;2.45;;;10.60;99.90;;;;;;4881456;29;20108;-85
2022/06/03 02:17:07;;;;;;;2.42;2.22;;;10.60;99.90;;;;;;4881717;29;20060;-85
2022/06/03 02:20:00;;;;;;;3.60;2.50;;;10.60;99.90;;;;;;4862614;29;20049;-85
2022/06/03 02:22:47;;;;;;;3.28;2.80;;;10.50;99.90;;;;;;4865839;29;20044;-85
2022/06/03 02:25:24;;;;;;;3.13;2.17;;;10.50;99.90;;;;;;4865688;29;20519;-85
2022/06/03 02:28:12;;;;;;;2.85;2.58;;;10.50;99.90;;;;;;4881339;29;20688;-85
2022/06/03 02:30:49;;;;;;;3.60;2.47;;;10.50;99.90;;;;;;4881227;29;20044;-85
2022/06/03 02:34:04;;;;;;;2.58;1.98;;;10.40;99.90;;;;;;4881137;29;20059;-86
2022/06/03 02:36:58;;;;;;;2.25;1.90;;;10.40;99.90;;;;;;4865912;29;20045;-85
2022/06/03 02:39:45;;;;;;;2.50;2.13;;;10.40;99.90;;;;;;4880354;29;20052;-85
2022/06/03 02:42:48;;;;;;;2.45;2.15;;;10.40;99.90;;;;;;4880609;29;20044;-85
2022/06/03 02:45:48;;;;;;;3.85;2.47;;;10.40;99.90;;;;;;4880895;29;20060;-85
2022/06/03 02:48:33;;;;;;;4.47;3.28;;;10.40;99.90;;;;;;4880960;29;20049;-86
2022/06/03 02:51:27;;;;;;;2.92;2.55;;;10.40;99.90;;;;;;4848164;29;20531;-86
2022/06/03 02:54:25;;;;;;;3.45;2.13;;;10.30;99.90;;;;;;4862859;29;20057;-85
2022/06/03 02:56:57;;;;;;;2.92;2.05;;;10.30;99.90;;;;;;4858316;29;20100;-85
2022/06/03 02:59:47;;;;;;;4.63;3.15;;;10.30;99.90;;;;;;4866481;29;20053;-85
2022/06/03 03:02:19;;;;;;;3.17;2.03;;;10.20;99.90;;;;;;4848886;29;20100;-86
2022/06/03 03:04:59;;;;;;;3.08;2.05;;;10.20;99.90;;;;;;4862619;29;20049;-85
2022/06/03 03:07:42;;;;;;;8.60;2.75;;;10.20;99.90;;;;;;4877623;29;20140;-86
2022/06/03 03:10:18;;;;;;;5.32;2.88;;;10.20;99.90;;;;;;4864948;29;20053;-85
2022/06/03 03:12:47;;;;;;;5.75;2.53;;;10.20;99.90;;;;;;4896633;29;20154;-85
2022/06/03 03:15:21;;;;;;;4.07;2.17;;;10.20;99.90;;;;;;4877111;29;20148;-86
2022/06/03 03:18:09;;;;;;;3.47;2.28;;;10.10;99.90;;;;;;4878230;29;20120;-85
2022/06/03 03:20:59;;;;;;;3.65;2.80;;;10.10;99.90;;;;;;4877313;29;20041;-85
2022/06/03 03:24:03;;;;;;;4.22;2.22;;;10.10;99.90;;;;;;4862079;29;20049;-86
2022/06/03 03:26:41;;;;;;;3.63;2.67;;;10.10;99.90;;;;;;4876750;29;20061;-85
2022/06/03 03:29:25;;;;;;;;;;;10.10;99.90;;;;;;4862617;29;20089;-86
2022/06/03 03:32:08;;;;;;;2.78;2.17;;;10.10;99.90;;;;;;4877400;29;19924;-85
2022/06/03 03:34:52;;;;;;;4.05;2.38;;;10.10;99.90;;;;;;4877090;29;20492;-86
2022/06/03 03:37:49;;;;;;;4.25;2.38;;;10.10;99.90;;;;;;4858942;29;20148;-86
2022/06/03 03:41:13;;;;;;;3.55;2.22;;;10.10;99.90;;;;;;4873105;29;20108;-86
2022/06/03 03:43:54;;;;;;;2.85;1.88;;;10.10;99.90;;;;;;4877890;29;20148;-86
2022/06/03 03:46:37;;;;;;;5.47;2.53;;;10.20;99.90;;;;;;4877257;29;20052;-86
2022/06/03 03:49:37;;;;;;;4.25;3.00;;;10.20;99.90;;;;;;4877946;29;20099;-86
2022/06/03 03:52:25;;;;;;;3.90;2.90;;;10.20;99.90;;;;;;4862796;29;20052;-85
2022/06/03 03:55:09;;;;;;;4.00;2.70;;;10.20;99.90;;;;;;4881025;29;20548;-85
2022/06/03 03:57:38;;;;;;;3.10;2.50;;;10.20;99.90;;;;;;4880529;29;20059;-85
2022/06/03 04:00:20;;;;;;;4.80;3.33;;;10.20;99.90;;;;;;4896403;29;20101;-85
2022/06/03 04:03:20;;;;;;;3.55;3.00;;;10.30;99.90;;;;;;4880367;29;20142;-84
2022/06/03 04:06:12;;;;;;;4.53;2.72;;;10.30;99.90;;;;;;4881090;29;20056;-86
2022/06/03 04:08:52;;;;;;;6.82;3.03;;;10.30;99.90;;;;;;4880258;29;20139;-85
2022/06/03 04:11:35;;;;;;;5.25;2.80;;;10.40;99.90;;;;;;4880415;29;20516;-85
2022/06/03 04:14:48;;;;;;;3.60;2.80;;;10.30;99.90;;;;;;4880073;29;20124;-85
2022/06/03 04:17:57;;;;;;;4.70;2.78;;;10.40;99.90;;;;;;4809048;29;20058;-85
2022/06/03 04:20:56;;;;;;;3.33;2.78;;;10.50;99.90;;;;;;4796952;29;20091;-85
2022/06/03 04:23:55;;;;;;;3.42;2.35;;;10.50;99.90;;;;;;4866798;29;20105;-85
2022/06/03 04:26:36;;;;;;;3.05;2.75;;;10.50;99.90;;;;;;4880006;29;20116;-85
2022/06/03 04:29:50;;;;;;;2.50;2.30;;;10.50;99.90;;;;;;4880173;29;20072;-85
2022/06/03 04:32:46;;;;;;;3.40;1.98;;;10.60;99.90;;;;;;4879947;29;20188;-85
2022/06/03 04:35:33;;;;;;;3.60;2.72;;;10.60;99.90;;;;;;4880074;29;20458;-85
2022/06/03 04:38:19;;;;;;;2.92;2.58;;;10.60;99.90;;;;;;4861683;29;20504;-85
2022/06/03 04:40:50;;;;;;;4.03;2.60;;;10.70;99.90;;;;;;4861105;29;20061;-85
2022/06/03 04:43:35;;;;;;;3.17;2.08;;;10.70;99.90;;;;;;4862574;29;20508;-85
2022/06/03 04:46:28;;;;;;;5.63;2.40;;;10.80;99.90;;;;;;4861595;29;20093;-85
2022/06/03 04:49:23;;;;;;;2.33;2.08;;;10.90;99.90;;;;;;4856551;29;20061;-85
2022/06/03 04:52:11;;;;;;;3.97;3.65;;;10.90;99.90;;;;;;4846016;29;20053;-85
2022/06/03 04:55:02;;;;;;;3.40;2.35;;;10.90;99.90;;;;;;4866064;29;20104;-85
2022/06/03 04:57:46;;;;;;;4.80;2.58;;;11.00;99.90;;;;;;4881654;29;20049;-85
2022/06/03 05:00:29;;;;;;;4.47;3.10;;;11.10;99.90;;;;;;4854539;29;20048;-85
2022/06/03 05:03:07;;;;;;;5.30;3.70;;;11.20;99.90;;;;;;4879413;29;20056;-85
2022/06/03 05:06:11;;;;;;;3.95;3.13;;;11.30;99.90;;;;;;4877963;29;20132;-85
2022/06/03 05:08:51;;;;;;;2.88;2.40;;;11.50;99.90;;;;;;4854049;29;20065;-85
2022/06/03 05:11:39;;;;;;;4.53;2.47;;;11.70;99.90;;;;;;4879306;29;20540;-85
2022/06/03 05:14:43;;;;;;;6.28;3.67;;;12.10;99.90;;;;;;4879011;29;20056;-85
2022/06/03 05:17:20;;;;;;;5.90;2.72;;;12.30;99.90;;;;;;4860998;29;20144;-85
2022/06/03 05:20:05;;;;;;;6.57;2.38;;;12.60;99.90;;;;;;4872021;29;20073;-85
2022/06/03 05:22:33;;;;;;;3.88;3.00;;;12.80;99.90;;;;;;4878463;29;20412;-86
2022/06/03 05:25:29;;;;;;;3.60;2.30;;;12.80;99.90;;;;;;4863882;29;20064;-85
2022/06/03 05:28:01;;;;;;;3.00;2.42;;;12.80;99.90;;;;;;4845581;29;20145;-86
2022/06/03 05:31:15;;;;;;;3.95;2.83;;;12.80;99.90;;;;;;4860052;29;20101;-87
2022/06/03 05:33:41;;;;;;;4.00;2.78;;;12.80;99.90;;;;;;4817051;29;20088;-86
2022/06/03 05:36:34;;;;;;;3.80;2.90;;;12.90;99.90;;;;;;4860955;29;20037;-86
2022/06/03 05:39:21;;;;;;;3.47;2.42;;;12.90;99.90;;;;;;4860617;29;20053;-86
2022/06/03 05:44:40;;;;;;;4.18;2.67;;;13.10;99.90;;;;;;4860109;29;20061;-86
2022/06/03 05:47:19;;;;;;;2.87;2.53;;;13.30;99.90;;;;;;4863542;29;20048;-86
2022/06/03 05:49:57;;;;;;;3.10;2.33;;;13.40;99.90;;;;;;4878268;29;20136;-86
2022/06/03 05:52:35;;;;;;;5.80;3.53;;;13.50;99.90;;;;;;4877404;29;20085;-86
2022/06/03 05:55:26;;;;;;;5.95;2.42;;;13.50;99.90;;;;;;4879044;29;20188;-86
2022/06/03 05:58:13;;;;;;;2.90;2.22;;;13.60;99.90;;;;;;4878484;29;20093;-86
2022/06/03 06:01:16;;;;;;;2.60;2.35;;;13.80;99.90;;;;;;4877668;29;20059;-86
2022/06/03 06:03:47;;;;;;;4.72;2.40;;;13.90;99.90;;;;;;4878374;29;20053;-86
2022/06/03 06:06:31;;;;;;;4.72;3.40;;;13.90;99.90;;;;;;4878470;29;20053;-86
2022/06/03 06:09:16;;;;;;;2.78;2.47;;;14.00;99.90;;;;;;4863179;29;20056;-86
2022/06/03 06:11:50;;;;;;;4.20;2.28;;;14.10;99.90;;;;;;4877546;29;20492;-86
2022/06/03 06:14:52;;;;;;;3.83;2.03;;;14.20;99.90;;;;;;4848537;29;20053;-86
2022/06/03 06:17:35;;;;;;;1.85;1.75;;;14.40;99.90;;;;;;4858177;29;20056;-85
2022/06/03 06:20:12;;;;;;;2.70;1.77;;;14.60;99.90;;;;;;4878541;29;20445;-86
2022/06/03 06:22:48;;;;;;;2.15;1.77;;;14.80;99.90;;;;;;4863226;29;20049;-85
2022/06/03 06:25:17;;;;;;;2.20;1.83;;;15.00;99.90;;;;;;4862907;29;20072;-86
2022/06/03 06:27:59;;;;;;;1.67;1.58;;;15.20;99.90;;;;;;4874446;29;20141;-86
2022/06/03 06:30:50;;;;;;;2.75;1.83;;;15.30;99.90;;;;;;4878581;29;20074;-86
2022/06/03 06:33:49;;;;;;;3.97;1.70;;;15.40;99.90;;;;;;4877626;29;20052;-85
2022/06/03 06:36:21;;;;;;;2.75;2.33;;;15.60;99.90;;;;;;4878084;29;20045;-85
2022/06/03 06:38:59;;;;;;;2.33;1.77;;;15.70;99.90;;;;;;4862113;29;20056;-85
2022/06/03 06:41:47;;;;;;;2.70;1.85;;;15.70;99.90;;;;;;4876967;29;20567;-85
2022/06/03 06:44:32;;;;;;;2.25;1.90;;;15.80;99.90;;;;;;4878296;29;20053;-85
2022/06/03 06:47:31;;;;;;;2.30;1.75;;;15.90;99.90;;;;;;4877970;29;20045;-85
2022/06/03 06:50:19;;;;;;;2.35;1.50;;;16.00;99.90;;;;;;4877187;29;20563;-85
2022/06/03 06:52:45;;;;;;;3.53;1.35;;;16.00;99.90;;;;;;4862259;29;20053;-85
2022/06/03 06:55:22;;;;;;;1.83;1.40;;;16.20;99.90;;;;;;4877906;29;20106;-85
2022/06/03 06:57:51;;;;;;;2.13;1.50;;;16.20;99.90;;;;;;4862297;29;20052;-86
2022/06/03 07:00:24;;;;;;;2.55;1.77;;;16.40;99.90;;;;;;4876420;29;20053;-85
2022/06/03 07:03:03;;;;;;;1.55;1.33;;;16.50;99.90;;;;;;4855290;29;20042;-86
2022/06/03 07:05:39;;;;;;;0.93;0.93;;;16.50;99.90;;;;;;4861600;29;20132;-85
2022/06/03 07:08:19;;;;;;;1.88;1.15;;;16.50;99.90;;;;;;4862364;29;20059;-85
2022/06/03 07:11:02;;;;;;;2.15;1.83;;;16.60;99.90;;;;;;4876950;29;20060;-86
2022/06/03 07:13:36;;;;;;;2.20;1.23;;;16.50;99.90;;;;;;4872643;29;20112;-85
2022/06/03 07:19:47;;;;;;;2.38;2.05;;;16.50;99.90;;;;;;4880204;29;20112;-85
2022/06/03 07:22:21;;;;;;;1.30;1.20;;;16.70;99.90;;;;;;4881236;29;20531;-85
2022/06/03 07:25:05;;;;;;;1.30;1.20;;;16.90;99.90;;;;;;4864799;29;20052;-85
2022/06/03 07:27:43;;;;;;;2.47;1.27;;;17.10;99.90;;;;;;4882694;29;20165;-85
2022/06/03 07:30:23;;;;;;;1.80;1.50;;;17.20;99.90;;;;;;4884147;29;20049;-85
2022/06/03 07:33:07;;;;;;;4.07;2.13;;;17.30;99.90;;;;;;4883723;29;20048;-85
2022/06/03 07:35:43;;;;;;;2.92;1.27;;;17.50;99.90;;;;;;4884589;29;20056;-85
2022/06/03 07:38:25;;;;;;;1.23;1.10;;;17.60;99.90;;;;;;4868601;29;20087;-86
2022/06/03 07:41:17;;;;;;;2.75;1.48;;;17.70;99.90;;;;;;4881534;29;20052;-85
2022/06/03 07:43:58;;;;;;;3.67;1.40;;;17.80;99.90;;;;;;4880564;29;20052;-86
2022/06/03 07:46:37;;;;;;;3.08;1.30;;;17.80;99.90;;;;;;4883006;29;20052;-83
2022/06/03 07:49:07;;;;;;;2.40;1.90;;;17.90;99.90;;;;;;4882012;29;20451;-83
2022/06/03 07:51:42;;;;;;;2.60;1.35;;;18.10;99.90;;;;;;4882512;29;20087;-82
2022/06/03 07:54:30;;;;;;;2.38;1.15;;;18.20;99.90;;;;;;4891719;29;20515;-83
2022/06/03 07:57:00;;;;;;;1.60;1.50;;;18.30;99.90;;;;;;4882466;29;20053;-83
2022/06/03 07:59:25;;;;;;;3.22;1.67;;;18.50;99.90;;;;;;4882623;29;20045;-83
2022/06/03 08:02:02;;;;;;;1.98;1.60;;;18.50;99.90;;;;;;4879740;29;20044;-83
2022/06/03 08:04:33;;;;;;;;;;;18.60;99.90;;;;;;4882874;29;20061;-87
2022/06/03 08:12:37;;;;;;;4.18;2.03;;;18.70;99.90;;;;;;4882169;29;20414;-83
2022/06/03 08:15:15;;;;;;;2.90;1.40;;;18.80;99.90;;;;;;4874292;29;20516;-82
2022/06/03 08:17:41;;;;;;;2.70;1.92;;;18.80;99.90;;;;;;4894353;29;20048;-84
2022/06/03 08:20:07;;;;;;;1.63;1.30;;;18.90;99.90;;;;;;4879266;29;20069;-84
2022/06/03 08:22:33;;;;;;;;;;;19.00;99.90;;;;;;4882513;29;20088;-84
2022/06/03 08:25:00;;;;;;;2.22;1.25;;;19.10;99.90;;;;;;4881297;29;19928;-83
2022/06/03 08:27:31;;;;;;;1.60;1.38;;;19.10;99.90;;;;;;4864108;29;20057;-83
2022/06/03 08:30:11;;;;;;;1.60;1.48;;;19.30;99.90;;;;;;4881272;29;20044;-83
2022/06/03 08:33:03;;;;;;;1.60;1.50;;;19.40;99.90;;;;;;4897632;29;20120;-83
2022/06/03 08:35:34;;;;;;;4.97;2.92;;;19.50;99.90;;;;;;4897095;29;20056;-83
2022/06/03 08:38:05;;;;;;;5.45;1.55;;;19.50;99.90;;;;;;4881428;29;20153;-83
2022/06/03 08:40:57;;;;;;;2.22;1.48;;;19.60;99.90;;;;;;4881459;29;20432;-83
2022/06/03 08:43:28;;;;;;;2.13;1.60;;;19.70;99.90;;;;;;4880991;29;20077;-82
2022/06/03 08:46:07;;;;;;;2.20;1.52;;;19.70;99.90;;;;;;4865982;29;20059;-84
2022/06/03 08:48:39;;;;;;;2.28;1.73;;;19.80;99.90;;;;;;4883426;29;20059;-89
2022/06/03 08:51:12;;;;;;;3.20;2.60;;;19.90;99.90;;;;;;4896327;29;20071;-84
2022/06/03 08:53:54;;;;;;;1.83;1.50;;;20.00;99.90;;;;;;4865812;29;20057;-84
2022/06/03 08:56:34;;;;;;;1.70;1.60;;;20.00;99.90;;;;;;4881261;29;20076;-84
2022/06/03 08:59:11;;;;;;;2.10;1.65;;;20.10;99.90;;;;;;4895136;29;20056;-87
2022/06/03 09:01:48;;;;;;;1.52;1.42;;;20.10;99.90;;;;;;4881686;29;20037;-83
2022/06/03 09:04:20;;;;;;;4.82;1.73;;;20.20;99.90;;;;;;4896712;29;20548;-83
2022/06/03 09:07:08;;;;;;;2.47;1.60;;;20.20;99.90;;;;;;4865906;29;20043;-83
2022/06/03 09:09:52;;;;;;;1.38;1.23;;;20.20;99.90;;;;;;4881345;29;20053;-84
2022/06/03 09:12:38;;;;;;;1.90;1.75;;;20.20;99.90;;;;;;4890142;29;20484;-84
2022/06/03 09:15:11;;;;;;;1.38;1.25;;;20.30;99.90;;;;;;4895532;29;20406;-84
2022/06/03 09:18:02;;;;;;;2.15;1.42;;;20.30;99.90;;;;;;4868302;29;20061;-84
2022/06/03 09:20:37;;;;;;;5.60;1.95;;;20.30;99.90;;;;;;4897063;29;20044;-84
2022/06/03 09:23:12;;;;;;;2.25;2.05;;;20.40;99.90;;;;;;4897956;29;20047;-84
2022/06/03 09:25:54;;;;;;;1.95;1.35;;;20.40;99.90;;;;;;4892774;29;20071;-84
2022/06/03 09:28:25;;;;;;;1.55;1.35;;;20.50;99.90;;;;;;4894223;29;20054;-84
2022/06/03 09:30:52;;;;;;;1.75;1.50;;;20.60;99.90;;;;;;4896240;29;20044;-84
2022/06/03 09:33:21;;;;;;;2.45;1.83;;;20.80;99.90;;;;;;4897261;29;20055;-86
2022/06/03 09:35:49;;;;;;;2.88;1.98;;;20.90;99.90;;;;;;4880928;29;20053;-81
2022/06/03 09:38:19;;;;;;;3.90;1.50;;;20.90;99.90;;;;;;4897016;29;20048;-81
2022/06/03 09:40:47;;;;;;;2.65;1.50;;;20.90;99.90;;;;;;4895827;29;20037;-82
2022/06/03 09:43:26;;;;;;;1.90;1.60;;;20.90;99.90;;;;;;4880516;29;20131;-81
2022/06/03 09:45:54;;;;;;;1.60;1.48;;;21.00;99.90;;;;;;4894792;29;20044;-81
2022/06/03 09:48:26;;;;;;;1.70;1.60;;;21.00;99.90;;;;;;4896659;29;20095;-83
2022/06/03 09:50:53;;;;;;;2.10;1.23;;;21.00;99.90;;;;;;4896711;29;20040;-81
2022/06/03 09:53:25;;;;;;;1.52;1.25;;;21.00;99.90;;;;;;4896642;29;20072;-81
2022/06/03 09:55:59;;;;;;;1.65;1.40;;;21.10;99.90;;;;;;4896963;29;20063;-81
2022/06/03 09:58:30;;;;;;;2.90;1.65;;;21.00;99.90;;;;;;4878633;29;20044;-81
2022/06/03 10:00:57;;;;;;;2.53;1.55;;;21.10;99.90;;;;;;4897013;29;20040;-82
2022/06/03 10:03:25;;;;;;;3.08;1.23;;;21.10;99.90;;;;;;4893681;29;20095;-82
2022/06/03 10:05:55;;;;;;;4.72;1.60;;;21.20;99.90;;;;;;4896857;29;20049;-82
2022/06/03 10:08:28;;;;;;;1.40;1.23;;;21.30;99.90;;;;;;4895028;29;20399;-81
2022/06/03 10:13:42;;;;;;;1.42;1.30;;;21.30;99.90;;;;;;4896973;29;20525;-81
2022/06/03 10:16:10;;;;;;;2.17;1.50;;;21.30;99.90;;;;;;4894071;29;20049;-82
2022/06/03 10:18:56;;;;;;;1.95;1.85;;;21.30;99.90;;;;;;4896236;29;20112;-82
2022/06/03 10:21:22;;;;;;;1.30;1.20;;;21.30;99.90;;;;;;4878956;29;20060;-82
2022/06/03 10:23:53;;;;;;;1.65;1.50;;;21.30;99.90;;;;;;4879810;29;20099;-81
2022/06/03 10:26:21;;;;;;;1.20;1.10;;;21.50;99.90;;;;;;4879930;29;20456;-82
2022/06/03 10:28:50;;;;;;;1.88;1.40;;;21.40;99.90;;;;;;4896601;29;20044;-83
2022/06/03 10:31:18;;;;;;;2.40;1.50;;;21.40;99.90;;;;;;4896249;29;20044;-83
2022/06/03 10:34:00;;;;;;;1.23;1.17;;;21.40;99.90;;;;;;4896537;29;20040;-84
2022/06/03 10:36:44;;;;;;;2.42;1.23;;;21.60;99.90;;;;;;4878801;29;20124;-84
2022/06/03 10:39:15;;;;;;;1.42;1.23;;;21.80;99.90;;;;;;4879685;29;20040;-84
2022/06/03 10:41:44;;;;;;;2.90;1.48;;;22.00;99.90;;;;;;4868743;29;20093;-84
2022/06/03 10:44:17;;;;;;;2.42;1.50;;;22.00;99.90;;;;;;4879257;29;20051;-84
2022/06/03 10:47:14;;;;;;;1.67;1.40;;;22.20;99.90;;;;;;4880636;29;20123;-84
2022/06/03 10:49:58;;;;;;;2.00;1.75;;;22.20;99.40;;;;;;4865621;29;20115;-84
2022/06/03 11:03:31;;;;;;;1.23;1.13;;;22.20;98.10;;;;;;4864624;29;20091;-85
2022/06/03 11:06:10;;;;;;;2.05;1.30;;;22.20;97.90;;;;;;4866344;29;20061;-84
2022/06/03 11:08:59;;;;;;;1.88;1.27;;;22.30;97.40;;;;;;4877706;29;20052;-85
2022/06/03 11:11:44;;;;;;;1.60;1.30;;;22.40;96.50;;;;;;4868360;29;20500;-87
2022/06/03 11:14:38;;;;;;;1.23;1.10;;;22.30;95.30;;;;;;4880561;29;20127;-87
2022/06/03 11:17:20;;;;;;;1.30;1.20;;;22.20;95.80;;;;;;4884443;29;20088;-86
2022/06/03 11:19:54;;;;;;;1.98;1.77;;;22.20;94.80;;;;;;4884688;29;20120;-83
2022/06/03 11:22:25;;;;;;;1.75;1.33;;;22.20;95.50;;;;;;4883998;29;20052;-84
2022/06/03 11:24:55;;;;;;;1.75;1.63;;;22.30;96.50;;;;;;4883570;29;20052;-83
2022/06/03 11:27:34;;;;;;;1.30;1.17;;;22.50;97.10;;;;;;4884228;29;20052;-84
2022/06/03 11:30:05;;;;;;;1.88;1.33;;;22.60;96.10;;;;;;4869066;29;20557;-83
2022/06/03 11:32:33;;;;;;;1.40;1.30;;;22.50;95.30;;;;;;4883932;29;20404;-83
2022/06/03 11:35:08;;;;;;;1.77;1.45;;;22.50;95.50;;;;;;4868902;29;20412;-83
2022/06/03 11:37:40;;;;;;;1.00;1.00;;;22.60;95.00;;;;;;4883704;29;20060;-83
2022/06/03 11:40:23;;;;;;;4.93;1.73;;;22.70;94.30;;;;;;4882219;29;20047;-83
2022/06/03 11:43:13;;;;;;;1.52;1.00;;;22.70;93.10;;;;;;4865595;29;20504;-83
2022/06/03 11:45:46;;;;;;;1.80;1.40;;;22.90;95.10;;;;;;4849756;29;20056;-83
2022/06/03 11:48:33;;;;;;;2.22;1.25;;;23.00;94.20;;;;;;4865660;29;20057;-83
2022/06/03 11:51:00;;;;;;;2.55;1.20;;;23.00;92.20;;;;;;4865733;29;20053;-83
2022/06/03 11:53:30;;;;;;;1.42;1.33;;;22.80;93.20;;;;;;4864789;29;20560;-83
2022/06/03 11:56:02;;;;;;;1.90;0.90;;;22.90;93.30;;;;;;4865658;29;20091;-83
2022/06/03 11:58:42;;;;;;;2.33;1.38;;;22.90;94.10;;;;;;4865019;29;20117;-83
2022/06/03 12:01:31;;;;;;;0.82;0.82;;;23.00;92.50;;;;;;4865395;29;20045;-83
2022/06/03 12:03:59;;;;;;;1.65;1.17;;;22.90;91.80;;;;;;4843554;29;20064;-83
2022/06/03 12:06:58;;;;;;;0.85;0.85;;;22.90;92.50;;;;;;4864821;29;20045;-84
2022/06/03 12:09:45;;;;;;;3.80;1.25;;;22.90;92.10;;;;;;4865905;29;20053;-84
2022/06/03 12:15:40;;;;;;;1.02;0.93;;;23.00;91.20;;;;;;4864141;29;20162;-84
2022/06/03 12:18:06;;;;;;;1.20;1.10;;;23.20;92.40;;;;;;4865305;29;20060;-83
2022/06/03 12:20:31;;;;;;;1.13;1.02;;;23.20;92.00;;;;;;4849276;29;20057;-83
2022/06/03 12:23:12;;;;;;;1.70;1.00;;;23.30;91.40;;;;;;4849560;29;20137;-83
2022/06/03 12:25:41;;;;;;;1.35;0.73;;;23.30;89.40;;;;;;4849240;29;20053;-83
2022/06/03 12:28:32;;;;;;;1.15;1.05;;;23.40;90.50;;;;;;4849513;29;20053;-84
2022/06/03 12:31:06;;;;;;;1.05;0.95;;;23.20;86.40;;;;;;4864699;29;20049;-83
2022/06/03 12:33:43;;;;;;;1.98;0.93;;;23.00;88.70;;;;;;4864010;29;20045;-84
2022/06/03 12:36:37;;;;;;;2.00;1.38;;;23.00;89.50;;;;;;4864514;29;20045;-83
2022/06/03 12:39:05;;;;;;;1.55;1.20;;;23.10;87.10;;;;;;4860192;29;20064;-83
2022/06/03 12:41:46;;;;;;;0.77;0.70;;;23.20;89.20;;;;;;4879887;29;20052;-84
2022/06/03 12:44:38;;;;;;;2.35;1.13;;;23.30;89.70;;;;;;4867736;29;20061;-83
2022/06/03 12:47:33;;;;;;;1.52;1.25;;;23.50;86.90;;;;;;4867698;29;20107;-83
2022/06/03 12:50:05;;;;;;;1.38;1.02;;;23.50;88.00;;;;;;4862934;29;20052;-84
2022/06/03 12:52:31;;;;;;;0.82;0.80;;;23.50;87.90;;;;;;4882466;29;20472;-84
2022/06/03 12:55:13;;;;;;;3.20;1.00;;;23.70;88.10;;;;;;4867549;29;20088;-83
2022/06/03 12:57:38;;;;;;;3.30;1.50;;;23.80;85.70;;;;;;4882599;29;20057;-83
2022/06/03 13:00:06;;;;;;;4.15;1.30;;;23.70;86.40;;;;;;4882903;29;20147;-84
2022/06/03 13:02:37;;;;;;;1.42;1.10;;;23.80;86.40;;;;;;4866632;29;20049;-83
2022/06/03 13:05:07;;;;;;;2.20;0.90;;;23.80;85.20;;;;;;4867664;29;20115;-85
2022/06/03 13:07:36;;;;;;;1.40;1.30;;;24.00;86.10;;;;;;4865766;29;20116;-86
2022/06/03 13:10:02;;;;;;;1.73;1.10;;;24.00;84.50;;;;;;4866771;29;20135;-83
2022/06/03 13:12:34;;;;;;;0.80;0.80;;;23.90;83.50;;;;;;4881435;29;20475;-87
2022/06/03 13:15:22;;;;;;;1.17;0.88;;;23.90;83.40;;;;;;4879021;29;20113;-84
2022/06/03 13:18:33;;;;;;;1.15;0.98;;;23.90;82.70;;;;;;4863719;29;20065;-87
2022/06/03 13:21:02;;;;;;;1.83;0.80;;;24.00;80.70;;;;;;4822592;29;20092;-85
2022/06/03 13:23:42;;;;;;;3.13;0.90;;;24.10;82.70;;;;;;4878900;29;20055;-85
2022/06/03 13:26:27;;;;;;;0.55;0.55;;;24.10;82.50;;;;;;4863373;29;20056;-85
2022/06/03 13:29:13;;;;;;;1.70;0.73;;;24.20;84.90;;;;;;4879004;29;20051;-85
2022/06/03 13:31:43;;;;;;;1.10;1.00;;;24.20;81.90;;;;;;4878393;29;20104;-84
2022/06/03 13:34:11;;;;;;;2.10;1.27;;;24.20;82.80;;;;;;4856777;29;20084;-85
2022/06/03 13:36:39;;;;;;;0.52;0.52;;;24.30;81.80;;;;;;4860326;29;20052;-86
2022/06/03 13:39:07;;;;;;;1.30;1.20;;;24.20;81.30;;;;;;4848770;29;20084;-87
2022/06/03 13:44:48;;;;;;;0.75;0.75;;;24.30;80.00;;;;;;4878729;29;20059;-88
2022/06/03 13:47:20;;;;;;;1.17;0.98;;;24.40;81.00;;;;;;4879074;29;20045;-86
2022/06/03 13:49:48;;;;;;;1.90;1.00;;;24.50;79.10;;;;;;4894108;29;20124;-86
2022/06/03 13:52:23;;;;;;;0.85;0.85;;;24.30;79.60;;;;;;4894036;29;20412;-86
2022/06/03 13:54:54;;;;;;;0.70;0.70;;;24.30;79.60;;;;;;4877707;29;20080;-86
2022/06/03 13:57:28;;;;;;;1.08;1.00;;;24.30;79.50;;;;;;4853192;29;20057;-86
2022/06/03 14:00:13;;;;;;;0.80;0.80;;;24.20;77.80;;;;;;4859957;29;20140;-87
2022/06/03 14:02:41;;;;;;;2.58;1.20;;;24.20;77.40;;;;;;4844629;29;20049;-87
2022/06/03 14:05:15;;;;;;;1.20;1.02;;;24.00;76.90;;;;;;4863407;29;20049;-87
2022/06/03 14:07:59;;;;;;;1.60;1.50;;;23.20;76.90;;;;;;4878430;29;20099;-86
2022/06/03 14:10:26;;;;;;;0.90;0.90;;;23.90;77.50;;;;;;4893888;29;20045;-86
2022/06/03 14:13:02;;;;;;;1.10;0.95;;;24.00;78.00;;;;;;4862535;29;20052;-87
2022/06/03 14:15:39;;;;;;;0.93;0.80;;;24.10;77.70;;;;;;4877931;29;20497;-84
2022/06/03 14:18:05;;;;;;;1.05;0.75;;;24.20;75.70;;;;;;4893995;29;20057;-85
2022/06/03 14:20:55;;;;;;;1.88;1.00;;;24.30;76.70;;;;;;4875110;29;20112;-84
2022/06/03 14:23:29;;;;;;;2.15;0.98;;;24.30;75.70;;;;;;4859397;29;20088;-84
2022/06/03 14:26:02;;;;;;;0.82;0.73;;;24.20;75.10;;;;;;4865536;29;20060;-84
2022/06/03 14:28:45;;;;;;;0.82;0.82;;;24.00;75.60;;;;;;4878466;29;20057;-84
2022/06/03 14:31:21;;;;;;;1.77;1.10;;;24.00;76.50;;;;;;4878462;29;20192;-84
2022/06/03 14:33:51;;;;;;;0.73;0.73;;;24.10;76.70;;;;;;4877708;29;20088;-84